createdAt,value
2023-03-16T00:03:55.516Z,12.50
2023-03-16T00:08:59.924Z,8.80
2023-03-16T00:14:04.984Z,10.10
2023-03-16T00:19:10.447Z,10.10
2023-03-16T00:24:19.778Z,10.60
2023-03-16T00:29:23.898Z,11.00
2023-03-16T00:34:30.737Z,10.70
2023-03-16T00:39:36.595Z,10.60
2023-03-16T00:44:42.334Z,12.50
2023-03-16T00:49:47.149Z,9.90
2023-03-16T00:54:54.856Z,13.70
2023-03-16T00:59:58.391Z,11.70
2023-03-16T01:05:02.849Z,15.30
2023-03-16T01:10:08.543Z,11.60
2023-03-16T01:15:14.133Z,11.60
2023-03-16T01:20:20.805Z,10.60
2023-03-16T01:25:25.195Z,10.60
2023-03-16T01:30:29.863Z,11.30
2023-03-16T01:35:34.444Z,12.60
2023-03-16T01:40:40.552Z,10.40
2023-03-16T01:46:07.052Z,11.90
2023-03-16T01:51:14.295Z,14.80
2023-03-16T01:56:25.597Z,18.40
2023-03-16T02:01:30.112Z,16.10
2023-03-16T02:06:36.778Z,13.50
2023-03-16T02:11:41.993Z,16.90
2023-03-16T02:16:46.765Z,13.60
2023-03-16T02:21:57.385Z,12.50
2023-03-16T02:27:15.390Z,15.00
2023-03-16T02:32:21.437Z,13.80
2023-03-16T02:37:27.890Z,14.20
2023-03-16T02:42:32.312Z,10.90
2023-03-16T02:47:44.346Z,12.20
2023-03-16T02:52:48.709Z,11.60
2023-03-16T02:57:52.908Z,11.20
2023-03-16T03:02:57.330Z,13.30
2023-03-16T03:08:02.269Z,15.30
2023-03-16T03:13:11.013Z,20.00
2023-03-16T03:18:17.688Z,14.20
2023-03-16T03:23:23.513Z,18.90
2023-03-16T03:28:29.802Z,13.90
2023-03-16T03:33:34.033Z,14.60
2023-03-16T03:38:38.652Z,15.50
2023-03-16T03:43:45.974Z,16.90
2023-03-16T03:48:50.033Z,15.70
2023-03-16T03:53:53.812Z,15.10
2023-03-16T03:58:57.847Z,20.70
2023-03-16T04:04:01.534Z,16.70
2023-03-16T04:09:06.231Z,19.60
2023-03-16T04:14:10.315Z,27.00
2023-03-16T04:19:15.557Z,25.80
2023-03-16T04:24:20.460Z,22.40
2023-03-16T04:29:25.640Z,18.30
2023-03-16T04:34:30.045Z,20.80
2023-03-16T04:39:35.899Z,20.50
2023-03-16T04:44:45.324Z,21.50
2023-03-16T04:49:50.542Z,19.30
2023-03-16T04:54:55.893Z,19.80
2023-03-16T05:00:00.837Z,22.50
2023-03-16T05:05:07.916Z,22.70
2023-03-16T05:10:15.118Z,27.20
2023-03-16T05:15:20.363Z,29.70
2023-03-16T05:20:24.942Z,26.70
2023-03-16T05:25:29.841Z,27.00
2023-03-16T05:30:34.745Z,27.70
2023-03-16T05:35:40.038Z,27.20
2023-03-16T05:40:44.008Z,30.00
2023-03-16T05:45:47.068Z,25.90
2023-03-16T05:50:51.334Z,26.80
2023-03-16T05:55:54.995Z,30.80
2023-03-16T06:01:01.431Z,30.20
2023-03-16T06:06:04.708Z,32.00
2023-03-16T06:11:08.368Z,30.60
2023-03-16T06:16:14.678Z,32.00
2023-03-16T06:21:18.348Z,30.90
2023-03-16T06:26:22.713Z,34.80
2023-03-16T06:31:26.413Z,31.10
2023-03-16T06:36:31.811Z,32.80
2023-03-16T06:41:36.734Z,29.40
2023-03-16T06:46:42.946Z,32.40
2023-03-16T06:51:48.082Z,29.10
2023-03-16T06:56:53.672Z,33.00
2023-03-16T07:01:57.985Z,33.90
2023-03-16T07:07:02.940Z,32.90
2023-03-16T07:12:17.277Z,30.80
2023-03-16T07:17:21.188Z,22.90
2023-03-16T07:22:27.869Z,25.00
2023-03-16T07:27:32.283Z,21.70
2023-03-16T07:32:43.746Z,21.00
2023-03-16T07:37:49.886Z,19.10
2023-03-16T07:42:53.972Z,21.20
2023-03-16T07:48:00.173Z,19.80
2023-03-16T07:53:05.875Z,16.90
2023-03-16T07:58:14.169Z,18.20
2023-03-16T08:03:19.142Z,14.40
2023-03-16T08:08:25.663Z,16.10
2023-03-16T08:18:35.991Z,13.40
2023-03-16T08:23:41.534Z,11.50
2023-03-16T08:28:47.515Z,11.20
2023-03-16T08:33:54.198Z,15.20
2023-03-16T08:39:07.099Z,13.90
2023-03-16T08:44:24.383Z,10.60
2023-03-16T08:49:34.981Z,11.90
2023-03-16T08:54:49.752Z,13.60
2023-03-16T08:59:57.591Z,12.20
2023-03-16T09:05:03.878Z,12.20
2023-03-16T09:10:14.397Z,14.10
2023-03-16T09:15:22.011Z,9.90
2023-03-16T09:20:30.142Z,11.30
2023-03-16T09:25:37.471Z,10.10
2023-03-16T09:30:41.653Z,9.80
2023-03-16T09:35:48.212Z,9.30
2023-03-16T09:41:04.602Z,9.70
2023-03-16T09:46:19.537Z,9.90
2023-03-16T09:51:54.116Z,7.70
2023-03-16T09:57:02.225Z,7.50
2023-03-16T10:02:42.044Z,6.30
2023-03-16T10:07:53.728Z,7.10
2023-03-16T10:13:03.052Z,5.40
2023-03-16T10:18:19.360Z,4.90
2023-03-16T10:23:26.618Z,4.10
2023-03-16T10:28:33.627Z,3.90
2023-03-16T10:33:39.933Z,5.20
2023-03-16T10:38:51.073Z,3.20
2023-03-16T10:44:08.809Z,3.20
2023-03-16T10:49:30.451Z,3.20
2023-03-16T10:59:39.848Z,2.00
2023-03-16T11:04:44.752Z,2.40
2023-03-16T11:09:56.955Z,2.00
2023-03-16T11:15:29.408Z,1.90
2023-03-16T11:20:35.600Z,2.10
2023-03-16T11:25:52.945Z,2.80
2023-03-16T11:31:34.059Z,3.40
2023-03-16T11:36:50.640Z,2.90
2023-03-16T11:42:24.150Z,2.50
2023-03-16T11:47:51.841Z,3.10
2023-03-16T11:52:55.982Z,2.20
2023-03-16T12:03:43.151Z,4.10
2023-03-16T12:09:11.647Z,2.80
2023-03-16T12:14:45.342Z,3.20
2023-03-16T12:19:55.534Z,2.50
2023-03-16T12:25:17.951Z,2.60
2023-03-16T12:30:46.166Z,3.20
2023-03-16T12:36:20.349Z,2.10
2023-03-16T12:41:38.913Z,3.30
2023-03-16T12:47:05.668Z,2.90
2023-03-16T12:52:15.584Z,3.00
2023-03-16T12:57:26.562Z,2.30
2023-03-16T13:02:39.470Z,1.70
2023-03-16T13:08:04.953Z,3.50
2023-03-16T13:13:15.475Z,3.00
2023-03-16T13:18:25.632Z,2.40
2023-03-16T13:23:50.275Z,1.90
2023-03-16T13:28:58.097Z,2.80
2023-03-16T13:34:04.584Z,3.40
2023-03-16T13:44:28.690Z,2.10
2023-03-16T13:49:44.721Z,2.20
2023-03-16T13:54:52.047Z,3.70
2023-03-16T14:00:18.587Z,3.10
2023-03-16T14:05:29.872Z,2.40
2023-03-16T14:10:35.827Z,2.50
2023-03-16T14:15:39.325Z,3.30
2023-03-16T14:20:43.544Z,3.10
2023-03-16T14:25:49.274Z,3.10
2023-03-16T14:30:55.446Z,2.70
2023-03-16T14:36:08.102Z,2.60
2023-03-16T14:41:35.161Z,3.10
2023-03-16T14:46:43.566Z,2.90
2023-03-16T14:51:51.851Z,3.30
2023-03-16T14:57:06.098Z,3.50
2023-03-16T15:02:22.247Z,2.00
2023-03-16T15:07:31.448Z,2.80
2023-03-16T15:12:38.095Z,3.10
2023-03-16T15:17:42.537Z,2.20
2023-03-16T15:22:47.193Z,2.50
2023-03-16T15:27:53.272Z,1.80
2023-03-16T15:32:57.135Z,2.10
2023-03-16T15:38:05.233Z,2.30
2023-03-16T15:43:14.213Z,2.40
2023-03-16T15:48:20.535Z,2.40
2023-03-16T15:53:50.508Z,1.80
2023-03-16T15:58:54.290Z,2.00
2023-03-16T16:04:01.095Z,1.20
2023-03-16T16:09:05.477Z,1.80
2023-03-16T16:14:22.595Z,2.80
2023-03-16T16:19:27.672Z,1.00
2023-03-16T16:24:31.012Z,1.60
2023-03-16T16:29:35.293Z,2.40
2023-03-16T16:34:39.588Z,2.00
2023-03-16T16:39:44.223Z,2.40
2023-03-16T16:44:47.944Z,2.10
2023-03-16T16:49:53.464Z,2.40
2023-03-16T16:54:57.602Z,2.20
2023-03-16T17:00:02.543Z,1.90
2023-03-16T17:05:13.581Z,2.20
2023-03-16T17:10:26.818Z,2.60
2023-03-16T17:15:33.206Z,2.50
2023-03-16T17:20:37.545Z,2.40
2023-03-16T17:25:41.482Z,2.10
2023-03-16T17:30:49.010Z,2.10
2023-03-16T17:35:52.584Z,1.90
2023-03-16T17:40:58.581Z,2.00
2023-03-16T17:46:06.954Z,1.50
2023-03-16T17:51:20.443Z,1.30
2023-03-16T17:56:28.464Z,2.40
2023-03-16T18:01:35.289Z,2.20
2023-03-16T18:06:45.603Z,2.10
2023-03-16T18:11:51.827Z,4.00
2023-03-16T18:16:55.645Z,3.40
2023-03-16T18:21:59.897Z,3.90
2023-03-16T18:27:06.623Z,2.30
2023-03-16T18:32:23.677Z,2.90
2023-03-16T18:37:28.564Z,5.30
2023-03-16T18:42:34.443Z,30.00
2023-03-16T18:47:46.500Z,12.20
2023-03-16T18:52:52.233Z,12.90
2023-03-16T18:57:58.168Z,7.00
2023-03-16T19:03:03.548Z,12.70
2023-03-16T19:08:08.238Z,24.40
2023-03-16T19:13:20.649Z,62.40
2023-03-16T19:18:26.456Z,43.70
2023-03-16T19:23:38.239Z,26.80
2023-03-16T19:28:46.724Z,16.30
2023-03-16T19:33:54.199Z,13.30
2023-03-16T19:38:59.900Z,9.90
2023-03-16T19:44:14.612Z,10.00
2023-03-16T19:49:20.685Z,11.80
2023-03-16T19:54:36.065Z,11.40
2023-03-16T19:59:43.166Z,9.30
2023-03-16T20:04:47.669Z,11.10
2023-03-16T20:09:52.065Z,25.00
2023-03-16T20:14:57.877Z,26.90
2023-03-16T20:20:03.402Z,23.00
2023-03-16T20:25:08.859Z,24.90
2023-03-16T20:30:19.752Z,40.60
2023-03-16T20:35:29.023Z,37.20
2023-03-16T20:40:34.338Z,40.70
2023-03-16T20:45:40.057Z,35.90
2023-03-16T20:50:51.619Z,33.60
2023-03-16T21:01:22.467Z,30.80
2023-03-16T21:06:30.373Z,33.20
2023-03-16T21:11:41.333Z,31.40
2023-03-16T21:16:45.726Z,34.70
2023-03-16T21:21:51.776Z,28.40
2023-03-16T21:26:55.977Z,25.20
2023-03-16T21:32:02.493Z,21.60
2023-03-16T21:37:14.285Z,24.20
2023-03-16T21:42:19.020Z,24.20
2023-03-16T21:47:27.920Z,25.70
2023-03-16T21:52:33.061Z,30.70
2023-03-16T21:57:37.866Z,35.90
2023-03-16T22:02:47.798Z,35.30
2023-03-16T22:07:52.877Z,28.90
2023-03-16T22:12:57.698Z,36.20
2023-03-16T22:18:35.564Z,36.50
2023-03-16T22:23:42.247Z,31.10
2023-03-16T22:28:47.342Z,33.70
2023-03-16T22:33:52.465Z,32.70
2023-03-16T22:39:10.052Z,34.60
2023-03-16T22:44:24.839Z,27.00
2023-03-16T22:49:30.562Z,35.40
2023-03-16T22:54:35.869Z,37.60
2023-03-16T22:59:39.639Z,34.80
2023-03-16T23:04:44.956Z,34.20
2023-03-16T23:09:50.047Z,34.50
2023-03-16T23:14:54.714Z,36.50
2023-03-16T23:19:58.390Z,37.70
2023-03-16T23:25:04.252Z,38.40
2023-03-16T23:30:21.041Z,38.90
2023-03-16T23:35:28.209Z,37.50
2023-03-16T23:40:32.318Z,29.90
2023-03-16T23:45:42.725Z,43.20
2023-03-16T23:50:50.900Z,41.00
2023-03-16T23:55:56.685Z,31.20
